Time;durP1;ratioP1;P1;durP2;ratioP2;P2;SDS_P1;SDS_P2;PMS_P1;PMS_P2;Temp;Humidity;BMP_temperature;BMP_pressure;BME280_temperature;BME280_humidity;BME280_pressure;Samples;Min_cycle;Max_cycle;Signal;HPM_P1;HPM_P2
2022/09/04 00:01:18;;;;;;;0.30;0.30;;;16.30;99.90;;;16.33;100.00;101118.19;4836530;29;20216;-82
2022/09/04 00:03:54;;;;;;;0.40;0.40;;;;;;;16.28;100.00;101100.41;4841652;29;20216;-85
2022/09/04 00:06:34;;;;;;;0.20;0.20;;;16.30;99.90;;;16.23;100.00;101099.53;4822106;29;20220;-83
2022/09/04 00:09:10;;;;;;;0.20;0.20;;;16.20;99.90;;;16.18;100.00;101083.53;4835195;29;20213;-86
2022/09/04 00:12:04;;;;;;;0.30;0.30;;;16.20;99.90;;;16.18;100.00;101062.19;4835674;29;20237;-82
2022/09/04 00:14:49;;;;;;;0.30;0.30;;;16.20;99.90;;;16.21;100.00;101055.94;4852467;29;20678;-82
2022/09/04 00:17:36;;;;;;;0.22;0.22;;;16.10;99.90;;;16.20;100.00;101040.84;4830482;29;20221;-81
2022/09/04 00:20:24;;;;;;;0.10;0.10;;;16.20;99.90;;;16.12;100.00;101034.63;4853017;29;20245;-82
2022/09/04 00:23:17;;;;;;;0.20;0.20;;;16.10;99.90;;;16.07;100.00;101015.97;4839004;29;20580;-82
2022/09/04 00:25:49;;;;;;;0.30;0.30;;;;;;;16.09;100.00;101008.84;4839562;29;20573;-82
2022/09/04 00:28:25;;;;;;;0.28;0.28;;;16.00;99.90;;;15.85;100.00;100990.28;4856195;29;20214;-82
2022/09/04 00:31:32;;;;;;;0.20;0.20;;;16.00;99.90;;;15.87;100.00;100994.72;4861917;29;20678;-82
2022/09/04 00:34:12;;;;;;;0.40;0.40;;;15.90;99.90;;;15.80;100.00;100984.09;4839353;29;20244;-83
2022/09/04 00:36:46;;;;;;;0.30;0.30;;;15.80;99.90;;;15.72;100.00;100984.09;4849011;29;20213;-82
2022/09/04 00:39:34;;;;;;;0.30;0.30;;;15.80;99.90;;;15.84;100.00;100980.50;4834218;29;20225;-83
2022/09/04 00:42:30;;;;;;;0.17;0.17;;;15.80;99.90;;;15.90;100.00;100985.81;4833551;29;20605;-82
2022/09/04 00:45:32;;;;;;;0.30;0.30;;;15.90;99.90;;;15.68;100.00;100980.56;4847844;29;20237;-82
2022/09/04 00:48:46;;;;;;;0.30;0.30;;;15.80;99.90;;;15.70;100.00;100987.66;4847589;29;20208;-84
2022/09/04 00:51:39;;;;;;;0.20;0.20;;;15.70;99.90;;;15.64;100.00;100985.91;4848680;29;20224;-81
2022/09/04 00:54:37;;;;;;;0.30;0.30;;;15.70;99.90;;;15.63;100.00;100984.13;4846156;29;20229;-82
2022/09/04 00:58:08;;;;;;;0.30;0.30;;;15.60;99.90;;;15.63;100.00;100995.69;4846772;29;20667;-83
2022/09/04 01:00:38;;;;;;;0.20;0.20;;;15.60;99.90;;;15.66;100.00;101005.47;4835151;29;20237;-82
2022/09/04 01:03:22;;;;;;;0.30;0.30;;;15.60;99.90;;;15.48;100.00;101008.09;4864381;29;20217;-83
2022/09/04 01:06:08;;;;;;;0.20;0.20;;;15.50;99.90;;;15.46;100.00;101023.22;4855010;29;20241;-83
2022/09/04 01:08:45;;;;;;;0.20;0.20;;;15.50;99.90;;;15.39;100.00;101019.66;4841928;29;20220;-82
2022/09/04 01:11:44;;;;;;;0.28;0.28;;;15.40;99.90;;;15.25;100.00;101019.69;4852933;29;20204;-83
2022/09/04 01:14:39;;;;;;;0.30;0.30;;;15.30;99.90;;;15.31;100.00;101033.00;4848098;29;20237;-81
2022/09/04 01:17:39;;;;;;;0.30;0.30;;;15.40;99.90;;;15.24;100.00;101041.00;4852210;29;20555;-82
2022/09/04 01:20:50;;;;;;;0.22;0.22;;;15.30;99.90;;;15.25;100.00;101035.66;4839197;29;20245;-83
2022/09/04 01:23:51;;;;;;;0.30;0.30;;;15.30;99.90;;;15.29;100.00;101052.53;4862101;29;20220;-84
2022/09/04 01:26:46;;;;;;;0.30;0.30;;;15.30;99.90;;;15.34;100.00;101074.75;4859631;29;20232;-81
2022/09/04 01:29:20;;;;;;;0.20;0.20;;;;;;;15.26;100.00;101082.75;4854877;29;20215;-82
2022/09/04 01:32:28;;;;;;;0.25;0.25;;;15.30;99.90;;;15.12;100.00;101092.50;4856222;29;20208;-82
2022/09/04 01:35:14;;;;;;;0.20;0.20;;;15.20;99.90;;;15.11;100.00;101092.50;4836810;29;20248;-82
2022/09/04 01:38:23;;;;;;;0.10;0.10;;;15.20;99.90;;;15.19;100.00;101088.06;4864276;29;20220;-81
2022/09/04 01:41:21;;;;;;;0.10;0.10;;;15.10;99.90;;;15.14;100.00;101080.06;4854701;29;20241;-81
2022/09/04 01:43:50;;;;;;;0.10;0.10;;;15.20;99.90;;;15.11;100.00;101081.84;4855398;29;20213;-81
2022/09/04 01:47:09;;;;;;;0.00;0.00;;;15.10;99.90;;;14.92;100.00;101073.84;4852908;29;20236;-82
2022/09/04 01:49:46;;;;;;;0.10;0.10;;;14.90;99.90;;;14.89;100.00;101079.16;4853040;29;20372;-81
2022/09/04 01:52:47;;;;;;;0.40;0.40;;;14.70;99.90;;;14.85;100.00;101085.38;4857634;29;20213;-81
2022/09/04 01:55:29;;;;;;;0.10;0.10;;;14.90;99.90;;;14.73;100.00;101072.03;4845111;29;20236;-81
2022/09/04 01:58:16;;;;;;;0.13;0.13;;;14.90;99.90;;;14.69;100.00;101063.16;4856930;29;20597;-81
2022/09/04 02:01:10;;;;;;;0.03;0.03;;;14.80;99.90;;;14.61;100.00;101053.38;4858674;29;20233;-81
2022/09/04 02:04:10;;;;;;;2.20;1.70;;;14.80;99.90;;;14.62;100.00;101060.47;4852748;29;20214;-82
2022/09/04 02:07:32;;;;;;;0.10;0.10;;;14.80;99.90;;;14.67;100.00;101078.22;4848359;29;20220;-84
2022/09/04 02:10:41;;;;;;;0.10;0.10;;;14.80;99.90;;;14.85;100.00;101111.09;4840328;29;20232;-81
2022/09/04 02:13:34;;;;;;;0.10;0.10;;;;;;;14.79;100.00;101116.41;4838590;29;20217;-81
2022/09/04 02:16:29;;;;;;;0.10;0.10;;;14.90;99.90;;;14.83;100.00;101124.41;4833306;29;20233;-81
2022/09/04 02:19:46;;;;;;;0.10;0.10;;;14.90;99.90;;;14.88;100.00;101127.09;4846255;29;20213;-84
2022/09/04 02:22:51;;;;;;;0.00;0.00;;;14.80;99.90;;;14.78;100.00;101119.97;4840243;29;20221;-82
2022/09/04 02:25:30;;;;;;;0.43;0.43;;;;;;;14.71;100.00;101127.94;4847894;29;20252;-82
2022/09/04 02:28:36;;;;;;;0.10;0.10;;;14.80;99.90;;;14.87;100.00;101133.31;4858016;29;20224;-81
2022/09/04 02:31:28;;;;;;;0.10;0.10;;;14.90;99.90;;;14.99;100.00;101144.88;4841647;29;20217;-82
2022/09/04 02:34:28;;;;;;;0.13;0.10;;;14.80;99.90;;;14.81;100.00;101133.28;4815529;29;20213;-83
2022/09/04 02:37:29;;;;;;;0.10;0.10;;;14.80;99.90;;;14.79;100.00;101135.94;4831515;29;20225;-80
2022/09/04 02:40:10;;;;;;;0.10;0.10;;;14.80;99.90;;;14.76;100.00;101130.63;4841000;29;20256;-80
2022/09/04 02:42:51;;;;;;;0.10;0.10;;;;;;;14.68;100.00;101127.03;4856816;29;20209;-81
2022/09/04 02:45:38;;;;;;;0.10;0.10;;;14.70;99.90;;;14.62;100.00;101130.56;4846386;29;20225;-81
2022/09/04 02:48:33;;;;;;;0.10;0.10;;;14.70;99.90;;;14.62;100.00;101113.69;4833740;29;20209;-82
2022/09/04 02:51:19;;;;;;;0.10;0.10;;;14.60;99.90;;;14.57;100.00;101113.69;4847973;29;20225;-84
2022/09/04 02:54:00;;;;;;;0.20;0.20;;;14.60;99.90;;;14.59;100.00;101129.66;4832347;29;20201;-81
2022/09/04 02:57:23;;;;;;;0.10;0.10;;;14.70;99.90;;;14.60;100.00;101144.75;4853811;29;20635;-81
2022/09/04 03:00:13;;;;;;;0.00;0.00;;;14.60;99.90;;;14.50;100.00;101151.81;4850735;29;20231;-82
2022/09/04 03:03:17;;;;;;;0.10;0.10;;;14.50;99.90;;;14.48;100.00;101156.25;4855936;29;20214;-83
2022/09/04 03:06:03;;;;;;;0.10;0.10;;;14.60;99.90;;;14.59;100.00;101174.91;4849851;29;20249;-82
2022/09/04 03:08:51;;;;;;;0.10;0.10;;;14.60;99.90;;;14.59;100.00;101180.25;4849406;29;20220;-82
2022/09/04 03:11:54;;;;;;;0.10;0.10;;;14.60;99.90;;;14.55;100.00;101168.69;4840833;29;20205;-83
2022/09/04 03:14:35;;;;;;;0.10;0.10;;;14.60;99.90;;;14.71;100.00;101189.16;4824487;29;20241;-81
2022/09/04 03:17:38;;;;;;;0.10;0.10;;;14.70;99.90;;;14.68;100.00;101185.59;4854841;29;20217;-83
2022/09/04 03:20:22;;;;;;;0.10;0.10;;;14.60;99.90;;;14.63;100.00;101171.38;4854437;29;20217;-81
2022/09/04 03:23:19;;;;;;;0.10;0.10;;;14.60;99.90;;;14.65;100.00;101170.50;4854511;29;20224;-81
2022/09/04 03:26:21;;;;;;;0.00;0.00;;;14.60;99.90;;;14.55;100.00;101174.00;4840614;29;20236;-80
2022/09/04 03:29:13;;;;;;;0.10;0.10;;;14.50;99.90;;;14.47;100.00;101180.19;4856221;29;20205;-82
2022/09/04 03:32:09;;;;;;;0.00;0.00;;;14.50;99.90;;;14.46;100.00;101183.72;4858200;29;20217;-81
2022/09/04 03:35:14;;;;;;;0.10;0.10;;;14.40;99.90;;;14.33;100.00;101175.66;4852778;29;20686;-81
2022/09/04 03:38:02;;;;;;;0.10;0.10;;;16.00;99.90;;;14.43;100.00;101184.59;4840473;29;20225;-81
2022/09/04 03:40:38;;;;;;;0.10;0.10;;;;;;;14.40;100.00;101182.78;4850914;29;20253;-82
2022/09/04 03:43:32;;;;;;;0.10;0.10;;;14.40;99.90;;;14.33;100.00;101186.28;4850224;29;20217;-81
2022/09/04 03:46:05;;;;;;;0.10;0.10;;;14.40;99.90;;;14.30;100.00;101185.34;4860343;29;20706;-82
2022/09/04 03:49:19;;;;;;;0.10;0.10;;;14.40;99.90;;;14.25;100.00;101182.66;4859254;29;20220;-81
2022/09/04 03:52:26;;;;;;;0.10;0.10;;;14.30;99.90;;;14.29;100.00;101192.44;4855125;29;20209;-81
2022/09/04 03:55:29;;;;;;;0.20;0.20;;;14.40;99.90;;;14.23;100.00;101192.41;4839572;29;20229;-82
2022/09/04 03:58:39;;;;;;;0.10;0.10;;;14.30;99.90;;;14.19;100.00;101195.03;4857271;29;20212;-81
2022/09/04 04:01:45;;;;;;;0.10;0.10;;;14.20;99.90;;;14.04;100.00;101202.03;4840082;29;20233;-81
2022/09/04 04:04:58;;;;;;;0.10;0.10;;;14.00;99.90;;;14.07;100.00;101207.38;4848841;29;20311;-82
2022/09/04 04:08:01;;;;;;;0.10;0.10;;;14.20;99.90;;;14.12;100.00;101222.47;4839587;29;20287;-82
2022/09/04 04:10:44;;;;;;;0.00;0.00;;;14.20;99.90;;;14.03;100.00;101216.22;4853519;29;20213;-81
2022/09/04 04:13:15;;;;;;;0.10;0.10;;;;;;;14.13;100.00;101226.91;4842968;29;20217;-81
2022/09/04 04:16:07;;;;;;;0.35;0.35;;;14.20;99.90;;;14.18;100.00;101227.84;4857157;29;20244;-82
2022/09/04 04:18:52;;;;;;;0.10;0.10;;;14.10;99.90;;;14.04;100.00;101220.66;4853660;29;20217;-83
2022/09/04 04:21:39;;;;;;;0.10;0.10;;;;;;;14.09;100.00;101244.63;4855578;29;20240;-82
2022/09/04 04:24:54;;;;;;;0.10;0.10;;;14.10;99.90;;;14.02;100.00;101232.16;4866629;29;20244;-82
2022/09/04 04:28:02;;;;;;;0.10;0.10;;;14.10;99.90;;;14.05;100.00;101250.81;4856376;29;20232;-83
2022/09/04 04:30:53;;;;;;;0.20;0.20;;;14.10;99.90;;;14.08;100.00;101262.34;4834623;29;20221;-81
2022/09/04 04:33:45;;;;;;;0.10;0.10;;;14.10;99.90;;;14.13;100.00;101256.19;4844293;29;20223;-85
2022/09/04 04:36:54;;;;;;;0.10;0.10;;;14.10;99.90;;;14.23;100.00;101281.97;4868345;29;20225;-83
2022/09/04 04:39:49;;;;;;;0.00;0.00;;;14.20;99.90;;;14.24;100.00;101297.06;4849884;29;20227;-82
2022/09/04 04:42:27;;;;;;;0.00;0.00;;;14.30;99.90;;;14.28;100.00;101317.47;4858478;29;20244;-81
2022/09/04 04:48:14;;;;;;;0.10;0.10;;;14.30;99.90;;;14.37;100.00;101321.13;4865561;29;20232;-81
2022/09/04 04:51:02;;;;;;;0.10;0.10;;;;;;;14.35;100.00;101325.56;4853029;29;20226;-82
2022/09/04 04:53:45;;;;;;;0.10;0.10;;;14.30;99.90;;;14.31;100.00;101341.50;4859666;29;20208;-87
2022/09/04 04:56:22;;;;;;;0.10;0.10;;;14.30;99.90;;;14.31;100.00;101349.47;4859852;29;20214;-81
2022/09/04 04:59:02;;;;;;;0.10;0.10;;;14.30;99.90;;;14.31;100.00;101344.16;4828519;29;20220;-81
2022/09/04 05:02:02;;;;;;;0.10;0.10;;;14.30;99.90;;;14.38;100.00;101360.19;4845132;29;20233;-82
2022/09/04 05:04:47;;;;;;;0.10;0.10;;;14.30;99.90;;;14.38;100.00;101361.94;4847067;29;20236;-82
2022/09/04 05:07:36;;;;;;;0.10;0.10;;;14.40;99.90;;;14.43;100.00;101370.91;4860749;29;20222;-78
2022/09/04 05:11:08;;;;;;;0.10;0.10;;;14.40;99.90;;;14.47;100.00;101371.81;4859100;29;20209;-78
2022/09/04 05:14:16;;;;;;;0.10;0.10;;;14.50;99.90;;;14.51;100.00;101381.59;4786116;29;20626;-79
2022/09/04 05:16:47;;;;;;;0.10;0.10;;;;;;;14.55;100.00;101386.97;4852231;29;20209;-78
2022/09/04 05:19:40;;;;;;;0.00;0.00;;;14.60;99.90;;;14.70;100.00;101363.13;4865750;29;20213;-78
2022/09/04 05:22:19;;;;;;;0.10;0.10;;;14.70;99.90;;;14.63;100.00;101361.28;4843968;29;20626;-78
2022/09/04 05:24:48;;;;;;;0.10;0.10;;;;;;;14.71;100.00;101362.25;4849329;29;20224;-78
2022/09/04 05:27:32;;;;;;;0.10;0.10;;;14.70;99.90;;;14.76;100.00;101367.59;4870330;29;20216;-78
2022/09/04 05:30:17;;;;;;;0.10;0.10;;;14.80;99.90;;;14.80;100.00;101373.84;4868967;29;20224;-78
2022/09/04 05:32:59;;;;;;;0.10;0.10;;;;;;;14.83;100.00;101376.50;4864415;29;20213;-78
2022/09/04 05:35:46;;;;;;;0.10;0.10;;;;;;;14.87;100.00;101392.53;4847013;29;20237;-78
2022/09/04 05:38:37;;;;;;;0.10;0.10;;;14.90;99.90;;;14.84;100.00;101387.19;4842228;29;20220;-78
2022/09/04 05:41:24;;;;;;;0.10;0.10;;;;;;;14.85;100.00;101388.06;4854228;29;20209;-77
2022/09/04 05:43:59;;;;;;;0.10;0.10;;;;;;;14.95;100.00;101392.56;4855413;29;20240;-78
2022/09/04 05:47:08;;;;;;;0.10;0.10;;;15.00;99.90;;;14.89;100.00;101388.09;4837828;29;20220;-80
2022/09/04 05:49:46;;;;;;;0.10;0.10;;;;;;;14.88;100.00;101396.97;4843455;29;20213;-80
2022/09/04 05:52:38;;;;;;;0.10;0.10;;;14.90;99.90;;;14.84;100.00;101397.84;4873994;29;20205;-80
2022/09/04 05:55:47;;;;;;;0.10;0.10;;;14.90;99.90;;;14.94;100.00;101393.44;4850524;29;20233;-81
2022/09/04 05:59:10;;;;;;;0.10;0.10;;;15.00;99.90;;;14.99;100.00;101397.94;4856560;29;20225;-80
2022/09/04 06:02:00;;;;;;;0.10;0.10;;;15.00;99.90;;;14.97;100.00;101396.13;4855419;29;20229;-82
2022/09/04 06:05:05;;;;;;;0.00;0.00;;;15.00;99.90;;;15.08;100.00;101404.19;4871188;29;20236;-81
2022/09/04 06:08:04;;;;;;;0.10;0.10;;;15.10;99.90;;;15.16;100.00;101410.47;4860364;29;20228;-81
2022/09/04 06:10:41;;;;;;;0.10;0.10;;;15.10;99.90;;;15.12;100.00;101412.22;4843594;29;20219;-82
2022/09/04 06:13:13;;;;;;;0.10;0.10;;;;;;;15.12;100.00;101408.66;4861894;29;20213;-80
2022/09/04 06:16:31;;;;;;;0.10;0.10;;;15.10;99.90;;;15.09;100.00;101417.53;4849402;29;20250;-80
2022/09/04 06:19:26;;;;;;;0.10;0.10;;;15.20;99.90;;;15.15;100.00;101433.53;4866851;29;20209;-80
2022/09/04 06:22:03;;;;;;;0.10;0.10;;;;;;;15.13;100.00;101427.31;4858258;29;20232;-83
2022/09/04 06:25:08;;;;;;;0.10;0.10;;;15.20;99.90;;;15.16;100.00;101429.09;4849251;29;20248;-81
2022/09/04 06:27:56;;;;;;;0.10;0.10;;;15.30;99.90;;;15.21;100.00;101438.03;4851616;29;20213;-81
2022/09/04 06:30:37;;;;;;;0.10;0.10;;;15.30;99.90;;;15.09;100.00;101422.84;4850093;29;20224;-81
2022/09/04 06:33:22;;;;;;;0.10;0.10;;;15.30;99.90;;;15.25;100.00;101429.16;4866158;29;20255;-81
2022/09/04 06:36:29;;;;;;;0.10;0.10;;;15.40;99.90;;;15.46;100.00;101428.38;4865490;29;20248;-79
2022/09/04 06:39:44;;;;;;;0.00;0.00;;;15.60;99.90;;;15.56;100.00;101435.53;4831229;29;20237;-82
2022/09/04 06:42:27;;;;;;;0.00;0.00;;;15.70;99.90;;;15.59;100.00;101440.94;4862280;29;20238;-80
2022/09/04 06:45:32;;;;;;;0.10;0.10;;;15.70;99.90;;;15.55;100.00;101442.66;4863735;29;20237;-81
2022/09/04 06:48:45;;;;;;;0.10;0.10;;;15.60;99.90;;;15.64;100.00;101431.19;4860150;29;20565;-82
2022/09/04 06:51:55;;;;;;;0.10;0.10;;;15.80;99.90;;;15.76;100.00;101427.69;4861473;29;20225;-83
2022/09/04 06:55:01;;;;;;;0.00;0.00;;;15.90;99.90;;;15.88;100.00;101425.97;4855812;29;20236;-81
2022/09/04 06:57:34;;;;;;;0.00;0.00;;;;;;;16.02;100.00;101430.44;4855964;29;20218;-85
2022/09/04 07:00:11;;;;;;;0.10;0.10;;;16.00;99.90;;;15.94;100.00;101419.75;4849071;29;20212;-84
2022/09/04 07:03:50;;;;;;;0.10;0.10;;;16.10;99.90;;;16.08;100.00;101425.13;4851273;29;20710;-81
2022/09/04 07:06:55;;;;;;;0.10;0.10;;;16.20;99.90;;;16.28;100.00;101434.94;4832603;29;20209;-81
2022/09/04 07:09:40;;;;;;;0.00;0.00;;;16.30;99.90;;;16.19;100.00;101420.69;4837209;29;20205;-81
2022/09/04 07:12:47;;;;;;;0.10;0.10;;;16.00;99.90;;;16.03;100.00;101400.19;4833680;29;20297;-82
2022/09/04 07:15:55;;;;;;;0.10;0.10;;;16.30;99.90;;;16.19;100.00;101415.34;4846645;29;20233;-80
2022/09/04 07:18:35;;;;;;;0.10;0.10;;;16.30;99.90;;;16.28;100.00;101405.56;4862278;29;20216;-81
2022/09/04 07:21:59;;;;;;;0.10;0.10;;;16.40;99.90;;;16.22;100.00;101392.22;4838926;29;20236;-80
2022/09/04 07:24:43;;;;;;;0.10;0.10;;;;;;;16.40;100.00;101395.78;4853880;29;20244;-80
2022/09/04 07:27:33;;;;;;;0.00;0.00;;;16.60;99.90;;;16.52;100.00;101396.69;4863661;29;20223;-81
2022/09/04 07:30:06;;;;;;;0.10;0.10;;;16.90;99.90;;;16.69;100.00;101401.16;4856179;29;20208;-80
2022/09/04 07:33:26;;;;;;;0.00;0.00;;;17.00;99.90;;;16.70;100.00;101395.81;4852357;29;20216;-80
2022/09/04 07:36:07;;;;;;;0.00;0.00;;;17.00;99.90;;;16.84;100.00;101398.47;4838595;29;20600;-80
2022/09/04 07:39:10;;;;;;;0.00;0.00;;;17.00;99.90;;;16.86;100.00;101394.91;4846736;29;20219;-80
2022/09/04 07:42:19;;;;;;;0.10;0.10;;;17.00;99.90;;;16.74;100.00;101384.25;4861939;29;20220;-83
2022/09/04 07:45:15;;;;;;;0.10;0.10;;;17.10;99.90;;;16.82;100.00;101390.47;4838344;29;20233;-79
2022/09/04 07:47:54;;;;;;;0.00;0.00;;;17.20;99.90;;;17.07;100.00;101401.16;4852649;29;20224;-78
2022/09/04 07:50:31;;;;;;;0.10;0.10;;;18.80;99.90;;;16.92;100.00;101388.72;4841020;29;20219;-78
2022/09/04 07:53:14;;;;;;;0.10;0.10;;;17.40;99.90;;;17.23;100.00;101400.22;4846930;29;20666;-79
2022/09/04 07:55:47;;;;;;;0.10;0.10;;;17.30;99.90;;;16.77;100.00;101365.53;4851293;29;20233;-78
2022/09/04 07:58:49;;;;;;;0.00;0.00;;;17.50;99.90;;;17.12;100.00;101384.19;4850746;29;20687;-78
2022/09/04 08:01:22;;;;;;;0.10;0.10;;;;;;;17.23;100.00;101366.34;4839071;29;20213;-78
2022/09/04 08:04:21;;;;;;;0.00;0.00;;;17.80;99.90;;;17.04;100.00;101351.25;4858540;29;20248;-78
2022/09/04 08:06:58;;;;;;;0.00;0.00;;;17.90;99.90;;;17.23;100.00;101362.78;4849405;29;20220;-78
2022/09/04 08:10:16;;;;;;;0.00;0.00;;;17.90;99.90;;;17.41;100.00;101370.72;4843604;29;20220;-78
2022/09/04 08:13:41;;;;;;;0.00;0.00;;;17.90;99.90;;;17.60;100.00;101387.59;4858609;29;20230;-78
2022/09/04 08:16:42;;;;;;;0.00;0.00;;;18.00;99.90;;;17.58;100.00;101379.56;4757450;30;20228;-78
2022/09/04 08:19:47;;;;;;;0.00;0.00;;;17.80;99.90;;;17.73;100.00;101394.69;4854798;29;20224;-78
2022/09/04 08:23:16;;;;;;;0.00;0.00;;;18.00;99.90;;;17.83;100.00;101390.19;4843611;29;20697;-78
2022/09/04 08:26:13;;;;;;;0.13;0.13;;;18.20;99.90;;;17.89;100.00;101384.78;4840289;29;20232;-78
2022/09/04 08:29:01;;;;;;;0.00;0.00;;;;;;;18.15;100.00;101392.66;4856595;29;20206;-78
2022/09/04 08:31:41;;;;;;;0.00;0.00;;;;;;;17.88;100.00;101364.28;4837636;29;20221;-79
2022/09/04 08:34:47;;;;;;;0.38;0.38;;;18.50;99.90;;;18.00;100.00;101380.25;4842516;29;20599;-78
2022/09/04 08:37:32;;;;;;;0.00;0.00;;;18.60;99.90;;;18.08;100.00;101372.19;4840156;29;20245;-79
2022/09/04 08:40:41;;;;;;;0.10;0.10;;;18.70;99.90;;;18.07;100.00;101362.38;4845319;29;20216;-79
2022/09/04 08:43:09;;;;;;;0.00;0.00;;;;;;;18.30;100.00;101380.97;4850588;29;20232;-79
2022/09/04 08:45:50;;;;;;;0.00;0.00;;;;;;;18.27;100.00;101367.63;4853391;29;20240;-79
2022/09/04 08:48:34;;;;;;;0.13;0.13;;;19.00;99.90;;;18.30;100.00;101367.59;4849353;29;20221;-79
2022/09/04 08:51:13;;;;;;;0.20;0.20;;;19.00;99.90;;;18.39;100.00;101372.88;4852936;29;20209;-78
2022/09/04 08:54:08;;;;;;;0.15;0.15;;;19.20;99.90;;;18.45;100.00;101354.06;4839485;29;20220;-79
2022/09/04 08:57:09;;;;;;;0.10;0.10;;;19.60;99.90;;;18.71;100.00;101373.50;4851547;29;20221;-79
2022/09/04 09:00:17;;;;;;;0.00;0.00;;;20.00;99.90;;;18.84;100.00;101366.25;4851203;29;20213;-79
2022/09/04 09:03:33;;;;;;;0.00;0.00;;;20.10;99.90;;;19.36;100.00;101374.59;4830531;29;20209;-79
2022/09/04 09:06:57;;;;;;;0.00;0.00;;;20.50;99.90;;;19.72;100.00;101369.72;4846154;29;20233;-79
2022/09/04 09:09:53;;;;;;;0.03;0.03;;;20.60;99.90;;;19.33;100.00;101331.72;4852801;29;20618;-78
2022/09/04 09:13:10;;;;;;;0.00;0.00;;;20.70;99.90;;;19.58;100.00;101334.13;4855696;29;20223;-78
2022/09/04 09:16:13;;;;;;;0.00;0.00;;;20.80;99.90;;;19.80;100.00;101351.72;4849652;29;20228;-79
2022/09/04 09:19:10;;;;;;;0.00;0.00;;;21.10;99.90;;;19.97;100.00;101336.25;4851981;29;20200;-79
2022/09/04 09:21:59;;;;;;;0.10;0.10;;;;;;;20.35;100.00;101346.38;4843950;29;20215;-82
2022/09/04 09:25:19;;;;;;;0.10;0.10;;;21.60;99.90;;;20.48;100.00;101324.69;4849635;29;20335;-81
2022/09/04 09:28:31;;;;;;;0.00;0.00;;;20.90;99.90;;;19.96;100.00;101285.25;4856593;29;20215;-80
2022/09/04 09:31:49;;;;;;;0.10;0.10;;;20.80;99.90;;;20.10;100.00;101293.97;4862636;29;20680;-82
2022/09/04 09:35:21;;;;;;;0.00;0.00;;;20.80;99.90;;;20.31;100.00;101312.41;4838888;29;20240;-78
2022/09/04 09:38:14;;;;;;;0.10;0.10;;;21.20;99.90;;;20.59;100.00;101311.97;4842577;29;20213;-78
2022/09/04 09:41:12;;;;;;;0.03;0.03;;;21.30;99.90;;;20.49;100.00;101291.53;4862803;29;20212;-78
2022/09/04 09:44:18;;;;;;;0.00;0.00;;;21.10;99.90;;;20.61;100.00;101291.31;4857974;29;20236;-77
2022/09/04 09:47:11;;;;;;;0.00;0.00;;;21.40;99.90;;;20.78;100.00;101284.69;4863761;29;20213;-78
2022/09/04 09:50:15;;;;;;;0.00;0.00;;;21.60;99.90;;;20.93;100.00;101277.28;4863363;29;20223;-78
2022/09/04 09:53:24;;;;;;;0.10;0.10;;;22.20;99.90;;;21.46;100.00;101289.63;4858096;29;20213;-76
2022/09/04 09:56:06;;;;;;;0.43;0.43;;;21.90;99.90;;;21.14;100.00;101255.31;4840290;29;20235;-77
2022/09/04 09:59:02;;;;;;;0.00;0.00;;;22.40;99.90;;;22.09;100.00;101316.00;4861765;29;20207;-77
2022/09/04 10:01:45;;;;;;;0.00;0.00;;;;;;;21.43;100.00;101226.91;4842989;29;20205;-77
2022/09/04 10:05:06;;;;;;;0.00;0.00;;;22.80;99.90;;;22.34;100.00;101292.94;4866559;29;20713;-77
2022/09/04 10:08:28;;;;;;;0.10;0.10;;;23.90;99.90;;;22.71;100.00;101275.78;4855707;29;20212;-77
2022/09/04 10:11:22;;;;;;;0.20;0.20;;;24.00;99.90;;;22.57;100.00;101264.47;4859254;29;20208;-77
2022/09/04 10:14:17;;;;;;;0.20;0.20;;;24.70;99.90;;;22.62;100.00;101212.19;4866496;29;20212;-77
2022/09/04 10:17:13;;;;;;;0.28;0.28;;;24.90;99.90;;;23.63;100.00;101278.53;4854114;29;20217;-77
2022/09/04 10:20:07;;;;;;;0.20;0.20;;;24.80;99.90;;;23.30;100.00;101247.06;4845493;29;20213;-78
2022/09/04 10:23:13;;;;;;;0.32;0.32;;;23.60;99.90;;;22.99;100.00;101257.91;4849878;29;20220;-77
2022/09/04 10:26:14;;;;;;;0.40;0.40;;;24.50;99.90;;;23.97;100.00;101298.13;4858253;29;20227;-78
2022/09/04 10:29:43;;;;;;;0.47;0.47;;;25.30;99.90;;;23.20;100.00;101215.91;4851785;29;20204;-77
2022/09/04 10:32:33;;;;;;;0.40;0.40;;;25.40;99.90;;;23.79;100.00;101233.91;4853027;29;20212;-78
2022/09/04 10:35:48;;;;;;;0.30;0.30;;;24.80;99.90;;;23.76;100.00;101217.78;4838422;29;20221;-78
2022/09/04 10:38:33;;;;;;;0.40;0.40;;;26.20;99.90;;;24.40;100.00;101230.00;4857899;29;20208;-77
2022/09/04 10:41:19;;;;;;;0.30;0.30;;;26.60;99.90;;;25.16;100.00;101269.66;4860305;29;20216;-77
2022/09/04 10:44:16;;;;;;;0.73;0.45;;;27.00;99.90;;;25.59;100.00;101274.28;4857397;29;20234;-77
2022/09/04 10:47:27;;;;;;;0.40;0.40;;;27.00;99.90;;;24.72;100.00;101180.19;4855106;29;20224;-78
2022/09/04 10:50:11;;;;;;;0.88;0.70;;;26.30;99.90;;;24.55;100.00;101153.75;4859848;29;20217;-78
2022/09/04 10:53:13;;;;;;;0.77;0.60;;;26.90;99.90;;;24.94;100.00;101185.66;4854885;29;20223;-78
2022/09/04 10:55:53;;;;;;;0.43;0.40;;;26.40;99.90;;;24.77;100.00;101189.00;4856618;29;20236;-78
2022/09/04 10:58:43;;;;;;;1.27;1.13;;;26.90;99.90;;;25.24;100.00;101152.94;4859603;29;20219;-77
2022/09/04 11:01:56;;;;;;;1.20;0.70;;;26.30;99.90;;;24.95;100.00;101148.66;4842867;29;20217;-79
2022/09/04 11:04:46;;;;;;;0.90;0.80;;;26.40;99.90;;;25.26;100.00;101140.22;4812570;29;20255;-80
2022/09/04 11:07:34;;;;;;;0.57;0.57;;;26.80;99.90;;;25.26;100.00;101153.78;4855202;29;20224;-79
2022/09/04 11:10:03;;;;;;;0.70;0.60;;;;;;;27.15;100.00;101267.66;4835625;29;20216;-84
2022/09/04 11:12:50;;;;;;;0.98;0.70;;;28.60;99.90;;;25.80;100.00;101078.34;4854849;29;20208;-81
2022/09/04 11:15:56;;;;;;;0.70;0.68;;;28.70;99.90;;;24.73;100.00;101007.94;4846910;29;20233;-80
2022/09/04 11:18:58;;;;;;;0.80;0.77;;;28.60;99.90;;;25.94;100.00;101163.59;4847192;29;20219;-81
2022/09/04 11:22:11;;;;;;;1.45;1.00;;;29.60;99.90;;;27.13;100.00;101188.97;4834255;29;20208;-82
2022/09/04 11:24:47;;;;;;;2.15;1.38;;;31.20;99.90;;;28.65;100.00;101238.44;4852575;29;20240;-79
2022/09/04 11:27:43;;;;;;;1.83;1.13;;;30.50;99.90;;;27.93;100.00;101067.22;4857408;29;20240;-82
2022/09/04 11:31:04;;;;;;;1.65;1.10;;;30.50;99.90;;;26.56;100.00;100994.50;4860703;29;20223;-79
2022/09/04 11:34:31;;;;;;;1.05;0.75;;;30.50;99.90;;;27.31;100.00;101056.88;4842330;29;20205;-81
2022/09/04 11:37:32;;;;;;;0.52;0.52;;;30.30;99.90;;;26.76;100.00;100994.41;4838325;29;20231;-81
2022/09/04 11:40:21;;;;;;;0.80;0.70;;;30.40;99.90;;;27.66;100.00;101090.41;4840160;29;20208;-81
2022/09/04 11:43:48;;;;;;;0.98;0.70;;;30.30;99.90;;;27.07;100.00;101032.69;4859565;29;20215;-82
2022/09/04 11:47:00;;;;;;;1.80;1.02;;;29.90;99.90;;;25.84;100.00;100927.34;4859520;29;20216;-80
2022/09/04 11:49:49;;;;;;;1.10;0.88;;;29.80;99.90;;;27.59;100.00;101051.78;4857671;29;20209;-80
2022/09/04 11:52:41;;;;;;;1.20;0.90;;;29.90;99.90;;;26.94;100.00;100951.91;4856537;29;20224;-82
2022/09/04 11:55:15;;;;;;;1.05;0.82;;;;;;;25.87;100.00;100899.25;4836089;29;20240;-85
2022/09/04 11:57:46;;;;;;;1.00;0.80;;;;;;;26.77;100.00;100959.06;4854062;29;20207;-80
2022/09/04 12:00:17;;;;;;;1.00;0.85;;;29.30;99.90;;;25.95;100.00;100857.28;4857166;29;20217;-80
2022/09/04 12:03:16;;;;;;;0.52;0.50;;;29.30;99.90;;;26.46;100.00;100912.69;4845075;29;20219;-80
2022/09/04 12:06:06;;;;;;;0.70;0.60;;;29.20;99.90;;;26.59;100.00;100904.81;4846369;29;20240;-80
2022/09/04 12:08:34;;;;;;;0.50;0.50;;;;;;;26.42;97.44;100857.72;4854465;29;20209;-80
2022/09/04 12:11:49;;;;;;;0.50;0.50;;;30.10;99.90;;;27.05;100.00;100936.84;4870771;29;20207;-80
2022/09/04 12:14:58;;;;;;;0.50;0.50;;;29.70;99.90;;;26.86;98.38;100859.13;4822784;29;20236;-80